Time;durP1;ratioP1;P1;durP2;ratioP2;P2;SDS_P1;SDS_P2;PMS_P1;PMS_P2;Temp;Humidity;BMP_temperature;BMP_pressure;BME280_temperature;BME280_humidity;BME280_pressure;Samples;Min_cycle;Max_cycle;Signal;HPM_P1;HPM_P2
2022/12/30 00:00:47;;;;;;;;;;;21.80;35.40;;;;;;457409;258;2006;-44
2022/12/30 00:02:48;;;;;;;;;;;21.80;35.50;;;;;;457290;258;1761;-43
2022/12/30 00:04:50;;;;;;;;;;;21.80;35.50;;;;;;457486;258;2259;-43
2022/12/30 00:06:51;;;;;;;;;;;21.80;35.50;;;;;;457330;258;1739;-44
2022/12/30 00:08:52;;;;;;;;;;;21.70;35.50;;;;;;462499;255;1958;-43
2022/12/30 00:10:54;;;;;;;;;;;21.70;35.50;;;;;;463968;256;2204;-44
2022/12/30 00:34:02;;;;;;;;;;;21.50;35.80;;;;;;439944;264;1766;-44
2022/12/30 00:36:03;;;;;;;;;;;21.50;35.90;;;;;;437119;272;1751;-43
2022/12/30 00:38:04;;;;;;;;;;;21.50;35.90;;;;;;444074;268;1775;-44
2022/12/30 00:40:06;;;;;;;;;;;21.50;35.90;;;;;;436839;272;1772;-43
2022/12/30 00:44:26;;;;;;;;;;;21.50;36.00;;;;;;452522;262;2173;-44
2022/12/30 00:46:28;;;;;;;;;;;21.50;36.00;;;;;;452338;263;1906;-44
2022/12/30 00:57:46;;;;;;;;;;;21.40;36.00;;;;;;475813;250;1834;-43
2022/12/30 00:59:47;;;;;;;;;;;21.40;36.10;;;;;;458305;257;1704;-43
2022/12/30 01:01:48;;;;;;;;;;;21.40;36.10;;;;;;465953;252;1787;-43
2022/12/30 01:03:50;;;;;;;;;;;21.40;36.10;;;;;;476189;249;2171;-43
2022/12/30 01:05:51;;;;;;;;;;;21.40;36.10;;;;;;458360;257;1792;-43
2022/12/30 01:07:52;;;;;;;;;;;21.40;36.10;;;;;;466006;252;1775;-43
2022/12/30 01:09:54;;;;;;;;;;;21.40;36.10;;;;;;476121;249;1735;-44
2022/12/30 01:12:10;;;;;;;;;;;21.40;36.10;;;;;;458240;257;1955;-43
2022/12/30 01:14:11;;;;;;;;;;;21.40;36.10;;;;;;466185;252;1777;-43
2022/12/30 01:16:13;;;;;;;;;;;21.40;36.10;;;;;;476385;249;1710;-43
2022/12/30 01:18:14;;;;;;;;;;;21.40;36.10;;;;;;458611;256;1625;-44
2022/12/30 01:20:15;;;;;;;;;;;21.30;36.10;;;;;;466239;252;1725;-43
2022/12/30 01:22:17;;;;;;;;;;;21.40;36.20;;;;;;476110;249;1668;-44
2022/12/30 01:24:18;;;;;;;;;;;21.40;36.10;;;;;;458336;257;2603;-43
2022/12/30 01:26:19;;;;;;;;;;;21.40;36.10;;;;;;465985;252;1898;-43
2022/12/30 01:28:21;;;;;;;;;;;21.40;36.20;;;;;;476163;249;1988;-44
2022/12/30 01:30:22;;;;;;;;;;;21.40;36.20;;;;;;458277;257;1657;-43
2022/12/30 01:32:23;;;;;;;;;;;21.30;36.20;;;;;;465941;252;1682;-43
2022/12/30 01:34:25;;;;;;;;;;;21.40;36.30;;;;;;476042;249;1703;-43
2022/12/30 01:36:26;;;;;;;;;;;21.30;36.20;;;;;;458329;256;1884;-43
2022/12/30 01:38:27;;;;;;;;;;;21.40;36.30;;;;;;465964;252;2038;-43
2022/12/30 01:40:29;;;;;;;;;;;21.30;36.20;;;;;;475866;249;1741;-43
2022/12/30 01:42:30;;;;;;;;;;;21.30;36.20;;;;;;458329;256;1917;-44
2022/12/30 01:44:31;;;;;;;;;;;21.30;36.20;;;;;;465904;252;2200;-43
2022/12/30 01:46:33;;;;;;;;;;;21.40;36.30;;;;;;475888;249;1729;-44
2022/12/30 01:48:34;;;;;;;;;;;21.40;36.20;;;;;;458345;256;1692;-44
2022/12/30 01:50:35;;;;;;;;;;;21.40;36.20;;;;;;466261;252;1709;-43
2022/12/30 01:52:37;;;;;;;;;;;21.30;36.10;;;;;;475966;249;1713;-44
2022/12/30 01:54:38;;;;;;;;;;;21.30;36.20;;;;;;458299;257;1913;-43
2022/12/30 01:56:39;;;;;;;;;;;21.30;36.20;;;;;;466053;252;2378;-43
2022/12/30 01:58:41;;;;;;;;;;;21.30;36.20;;;;;;476012;249;2112;-44
2022/12/30 02:00:42;;;;;;;;;;;21.40;36.20;;;;;;458388;256;1708;-44
2022/12/30 02:02:43;;;;;;;;;;;21.60;36.00;;;;;;465878;252;2325;-44
2022/12/30 02:04:45;;;;;;;;;;;21.80;35.60;;;;;;476205;249;2196;-44
2022/12/30 02:06:46;;;;;;;;;;;21.90;35.30;;;;;;458226;257;2121;-44
2022/12/30 02:08:47;;;;;;;;;;;22.10;35.00;;;;;;466066;252;1955;-43
2022/12/30 02:10:49;;;;;;;;;;;22.20;34.80;;;;;;458272;257;1868;-43
2022/12/30 02:12:50;;;;;;;;;;;22.30;34.60;;;;;;475961;249;2223;-44
2022/12/30 02:14:51;;;;;;;;;;;22.40;34.50;;;;;;458299;257;1943;-43
2022/12/30 02:16:53;;;;;;;;;;;22.50;34.40;;;;;;465790;252;1865;-43
2022/12/30 02:18:54;;;;;;;;;;;22.50;34.40;;;;;;476299;249;2165;-44
2022/12/30 02:20:55;;;;;;;;;;;22.40;34.40;;;;;;458205;257;1915;-43
2022/12/30 02:22:56;;;;;;;;;;;22.30;34.60;;;;;;466178;252;2405;-44
2022/12/30 02:24:58;;;;;;;;;;;22.10;34.80;;;;;;476021;249;2195;-43
2022/12/30 02:26:59;;;;;;;;;;;22.00;35.10;;;;;;458199;257;1691;-43
2022/12/30 02:29:00;;;;;;;;;;;21.90;35.40;;;;;;465882;252;1963;-43
2022/12/30 02:31:02;;;;;;;;;;;21.80;35.50;;;;;;475842;249;1734;-43
2022/12/30 02:33:03;;;;;;;;;;;21.80;35.60;;;;;;458178;255;1819;-44
2022/12/30 02:35:04;;;;;;;;;;;21.70;35.70;;;;;;465950;252;1721;-44
2022/12/30 02:37:06;;;;;;;;;;;21.60;35.80;;;;;;475937;249;1927;-43
2022/12/30 02:39:07;;;;;;;;;;;21.60;35.80;;;;;;458384;256;2363;-44
2022/12/30 02:45:46;;;;;;;;;;;21.50;36.00;;;;;;458376;260;2162;-43
2022/12/30 02:47:50;;;;;;;;;;;21.50;36.10;;;;;;466165;252;1700;-43
2022/12/30 02:52:15;;;;;;;;;;;21.50;36.00;;;;;;458352;260;1926;-43
2022/12/30 02:54:16;;;;;;;;;;;21.50;36.10;;;;;;466148;252;1713;-43
2022/12/30 02:56:18;;;;;;;;;;;21.40;36.20;;;;;;476038;249;1722;-43
2022/12/30 02:58:19;;;;;;;;;;;21.40;36.10;;;;;;458381;257;1693;-43
2022/12/30 03:04:59;;;;;;;;;;;21.50;36.10;;;;;;458172;259;2193;-44
2022/12/30 03:07:00;;;;;;;;;;;21.80;35.70;;;;;;466002;252;1748;-43
2022/12/30 03:09:01;;;;;;;;;;;22.00;35.40;;;;;;475983;249;1815;-44
2022/12/30 03:11:16;;;;;;;;;;;22.10;35.00;;;;;;458309;256;1764;-44
2022/12/30 03:13:17;;;;;;;;;;;22.20;34.80;;;;;;465883;252;1723;-44
2022/12/30 03:15:19;;;;;;;;;;;22.40;34.60;;;;;;475942;249;1717;-44
2022/12/30 03:17:20;;;;;;;;;;;22.50;34.50;;;;;;458229;256;1749;-44
2022/12/30 03:19:21;;;;;;;;;;;22.50;34.50;;;;;;465853;252;1907;-43
2022/12/30 03:21:23;;;;;;;;;;;22.50;34.50;;;;;;476102;249;1715;-44
2022/12/30 03:28:06;;;;;;;;;;;22.00;35.10;;;;;;475969;250;1343;-43
2022/12/30 03:30:08;;;;;;;;;;;21.90;35.40;;;;;;458370;257;1719;-44
2022/12/30 03:32:09;;;;;;;;;;;21.80;35.60;;;;;;466017;252;2025;-43
2022/12/30 03:34:11;;;;;;;;;;;21.70;35.80;;;;;;475974;249;1926;-44
2022/12/30 03:36:12;;;;;;;;;;;21.70;35.80;;;;;;458344;257;1845;-43
2022/12/30 03:38:13;;;;;;;;;;;21.70;35.90;;;;;;466019;252;2095;-44
2022/12/30 03:40:15;;;;;;;;;;;21.60;35.90;;;;;;475926;249;1867;-43
2022/12/30 03:42:16;;;;;;;;;;;21.60;36.00;;;;;;458250;256;2027;-44
2022/12/30 03:44:17;;;;;;;;;;;21.60;36.00;;;;;;465810;252;1864;-44
2022/12/30 03:46:19;;;;;;;;;;;21.50;36.00;;;;;;476010;249;2242;-43
2022/12/30 03:48:20;;;;;;;;;;;21.50;36.00;;;;;;458300;256;1842;-44
2022/12/30 03:50:21;;;;;;;;;;;21.50;36.10;;;;;;465831;252;1923;-44
2022/12/30 03:52:23;;;;;;;;;;;21.50;36.10;;;;;;475842;249;1862;-43
2022/12/30 03:54:24;;;;;;;;;;;21.50;36.20;;;;;;458228;256;1798;-44
2022/12/30 03:56:25;;;;;;;;;;;21.40;36.20;;;;;;465796;252;2248;-43
2022/12/30 03:58:27;;;;;;;;;;;21.40;36.20;;;;;;475815;249;1825;-43
2022/12/30 04:00:28;;;;;;;;;;;21.40;36.20;;;;;;458203;257;2233;-43
2022/12/30 04:02:29;;;;;;;;;;;21.40;36.30;;;;;;465819;252;2172;-44
2022/12/30 04:04:31;;;;;;;;;;;21.40;36.30;;;;;;475984;249;2157;-43
2022/12/30 04:06:32;;;;;;;;;;;21.40;36.30;;;;;;458183;257;1765;-43
2022/12/30 04:08:33;;;;;;;;;;;21.40;36.30;;;;;;465837;252;1926;-43
2022/12/30 04:10:35;;;;;;;;;;;21.40;36.30;;;;;;475977;249;1957;-43
2022/12/30 04:12:36;;;;;;;;;;;21.40;36.30;;;;;;458236;257;2166;-44
2022/12/30 04:14:37;;;;;;;;;;;21.40;36.40;;;;;;465832;252;1725;-44
2022/12/30 04:16:39;;;;;;;;;;;21.30;36.30;;;;;;475999;249;1684;-44
2022/12/30 04:18:40;;;;;;;;;;;21.30;36.30;;;;;;458284;257;1715;-44
2022/12/30 04:20:41;;;;;;;;;;;21.30;36.30;;;;;;465811;252;2137;-44
2022/12/30 04:22:43;;;;;;;;;;;21.30;36.30;;;;;;475800;249;2222;-43
2022/12/30 04:24:44;;;;;;;;;;;21.30;36.40;;;;;;458264;255;2198;-43
2022/12/30 04:26:45;;;;;;;;;;;21.30;36.30;;;;;;465790;252;1853;-44
2022/12/30 04:28:46;;;;;;;;;;;21.30;36.40;;;;;;475851;249;1692;-43
2022/12/30 04:30:48;;;;;;;;;;;21.30;36.40;;;;;;458157;257;1882;-43
2022/12/30 04:32:49;;;;;;;;;;;21.30;36.40;;;;;;465946;252;1752;-44
2022/12/30 04:34:50;;;;;;;;;;;21.30;36.40;;;;;;475942;249;2137;-44
2022/12/30 04:36:52;;;;;;;;;;;21.30;36.50;;;;;;458156;257;2203;-43
2022/12/30 04:38:53;;;;;;;;;;;21.30;36.50;;;;;;466136;252;1828;-44
2022/12/30 04:40:55;;;;;;;;;;;21.30;36.50;;;;;;475973;249;1598;-43
2022/12/30 04:42:56;;;;;;;;;;;21.30;36.50;;;;;;458326;256;1862;-43
2022/12/30 04:44:57;;;;;;;;;;;21.30;36.50;;;;;;466060;252;2209;-44
2022/12/30 04:46:58;;;;;;;;;;;21.30;36.50;;;;;;476079;249;1384;-44
2022/12/30 04:49:00;;;;;;;;;;;21.30;36.50;;;;;;458393;256;1745;-44
2022/12/30 04:51:01;;;;;;;;;;;21.30;36.50;;;;;;465957;252;2231;-44
2022/12/30 04:53:02;;;;;;;;;;;21.30;36.40;;;;;;475992;249;2202;-44
2022/12/30 04:55:04;;;;;;;;;;;21.30;36.40;;;;;;458368;257;1909;-43
2022/12/30 04:57:05;;;;;;;;;;;21.20;36.40;;;;;;465837;252;1731;-43
2022/12/30 04:59:06;;;;;;;;;;;21.30;36.50;;;;;;476022;249;1959;-43
2022/12/30 05:01:08;;;;;;;;;;;21.20;36.50;;;;;;456606;258;2135;-44
2022/12/30 05:03:09;;;;;;;;;;;21.20;36.50;;;;;;476160;250;1718;-43
2022/12/30 05:05:10;;;;;;;;;;;21.20;36.60;;;;;;458286;257;2202;-43
2022/12/30 05:07:12;;;;;;;;;;;21.20;36.60;;;;;;465866;252;1830;-43
2022/12/30 05:09:13;;;;;;;;;;;21.20;36.70;;;;;;476212;249;1818;-44
2022/12/30 05:11:14;;;;;;;;;;;21.20;36.60;;;;;;458383;256;2237;-43
2022/12/30 05:13:16;;;;;;;;;;;21.20;36.60;;;;;;465947;252;1891;-44
2022/12/30 05:15:17;;;;;;;;;;;21.30;36.60;;;;;;475988;249;1705;-43
2022/12/30 05:17:18;;;;;;;;;;;21.30;36.50;;;;;;458175;257;1689;-44
2022/12/30 05:19:20;;;;;;;;;;;21.20;36.50;;;;;;465866;252;1914;-44
2022/12/30 05:21:21;;;;;;;;;;;21.20;36.60;;;;;;475745;249;1958;-43
2022/12/30 05:28:01;;;;;;;;;;;21.20;36.60;;;;;;475887;250;1731;-43
2022/12/30 05:30:02;;;;;;;;;;;21.20;36.60;;;;;;458399;256;1745;-43
2022/12/30 05:32:03;;;;;;;;;;;21.20;36.60;;;;;;465889;252;2375;-43
2022/12/30 05:34:05;;;;;;;;;;;21.20;36.60;;;;;;475958;249;1703;-43
2022/12/30 05:36:06;;;;;;;;;;;21.20;36.60;;;;;;458124;256;1794;-43
2022/12/30 05:38:07;;;;;;;;;;;21.20;36.60;;;;;;465924;252;1818;-43
2022/12/30 05:40:09;;;;;;;;;;;21.20;36.70;;;;;;476011;249;1872;-43
2022/12/30 05:42:10;;;;;;;;;;;21.10;36.70;;;;;;458164;256;1703;-43
2022/12/30 05:44:11;;;;;;;;;;;21.20;36.80;;;;;;465817;252;2132;-43
2022/12/30 05:46:13;;;;;;;;;;;21.10;36.70;;;;;;475848;249;2172;-44
2022/12/30 05:48:16;;;;;;;;;;;21.20;36.70;;;;;;458223;256;1729;-43
2022/12/30 05:50:15;;;;;;;;;;;21.20;36.70;;;;;;465782;252;2390;-43
2022/12/30 05:52:17;;;;;;;;;;;21.20;36.70;;;;;;475769;249;1743;-43
2022/12/30 05:54:18;;;;;;;;;;;21.20;36.70;;;;;;458218;257;1742;-43
2022/12/30 05:56:19;;;;;;;;;;;21.10;36.70;;;;;;465722;252;1605;-44
2022/12/30 05:58:21;;;;;;;;;;;21.10;36.60;;;;;;475939;249;1997;-44
2022/12/30 06:00:22;;;;;;;;;;;21.30;36.60;;;;;;458255;257;1738;-43
2022/12/30 06:02:23;;;;;;;;;;;21.50;36.40;;;;;;466027;252;1855;-43
2022/12/30 06:04:25;;;;;;;;;;;21.60;35.90;;;;;;476103;249;2078;-44
2022/12/30 06:06:26;;;;;;;;;;;21.80;35.60;;;;;;458259;256;2197;-44
2022/12/30 06:08:27;;;;;;;;;;;22.00;35.30;;;;;;466103;252;1458;-44
2022/12/30 06:10:29;;;;;;;;;;;22.10;35.10;;;;;;475820;249;1613;-44
2022/12/30 06:12:30;;;;;;;;;;;22.20;34.90;;;;;;458207;257;1757;-43
2022/12/30 06:14:31;;;;;;;;;;;22.30;34.70;;;;;;465896;252;1917;-43
2022/12/30 06:16:33;;;;;;;;;;;22.40;34.60;;;;;;476160;249;2652;-44
2022/12/30 06:18:34;;;;;;;;;;;22.50;34.50;;;;;;458331;255;1698;-44
2022/12/30 06:20:35;;;;;;;;;;;22.50;34.40;;;;;;466065;252;1859;-44
2022/12/30 06:22:36;;;;;;;;;;;22.60;34.40;;;;;;476125;249;1995;-43
2022/12/30 06:24:38;;;;;;;;;;;22.60;34.30;;;;;;458410;256;1746;-44
2022/12/30 06:26:39;;;;;;;;;;;22.70;34.30;;;;;;465862;252;2211;-43
2022/12/30 06:28:40;;;;;;;;;;;22.70;34.10;;;;;;475962;249;1964;-44
2022/12/30 06:30:42;;;;;;;;;;;22.70;34.10;;;;;;458371;256;2013;-44
2022/12/30 06:32:43;;;;;;;;;;;22.80;34.00;;;;;;465973;252;2274;-44
2022/12/30 06:34:44;;;;;;;;;;;22.80;33.90;;;;;;475888;249;2148;-44
2022/12/30 06:36:46;;;;;;;;;;;22.90;33.90;;;;;;458493;256;1919;-44
2022/12/30 06:38:47;;;;;;;;;;;22.90;33.90;;;;;;465826;252;2121;-44
2022/12/30 06:40:49;;;;;;;;;;;22.90;33.90;;;;;;475976;249;1739;-43
2022/12/30 06:42:50;;;;;;;;;;;23.00;33.80;;;;;;458264;257;2117;-43
2022/12/30 06:44:51;;;;;;;;;;;23.00;33.80;;;;;;465825;252;1696;-43
2022/12/30 06:46:53;;;;;;;;;;;23.00;33.70;;;;;;475831;249;2169;-44
2022/12/30 06:48:54;;;;;;;;;;;23.00;33.70;;;;;;458549;256;2101;-44
2022/12/30 06:50:55;;;;;;;;;;;23.10;33.70;;;;;;466186;252;1870;-44
2022/12/30 06:52:57;;;;;;;;;;;23.10;33.70;;;;;;476279;249;1756;-44
2022/12/30 06:54:58;;;;;;;;;;;23.10;33.60;;;;;;458548;256;2308;-44
2022/12/30 06:56:59;;;;;;;;;;;23.10;33.60;;;;;;466078;252;1766;-43
2022/12/30 06:59:00;;;;;;;;;;;23.10;33.50;;;;;;476191;249;2167;-44
2022/12/30 07:01:02;;;;;;;;;;;23.20;33.60;;;;;;458503;256;1735;-44
2022/12/30 07:03:03;;;;;;;;;;;23.20;33.50;;;;;;466119;252;2006;-43
2022/12/30 07:05:05;;;;;;;;;;;23.20;33.50;;;;;;476163;249;2066;-43
2022/12/30 07:07:06;;;;;;;;;;;23.20;33.40;;;;;;458400;256;2209;-44
2022/12/30 07:09:07;;;;;;;;;;;23.20;33.40;;;;;;466351;252;1348;-44
2022/12/30 07:11:08;;;;;;;;;;;23.30;33.40;;;;;;475967;249;1745;-43
2022/12/30 07:13:10;;;;;;;;;;;23.30;33.40;;;;;;458433;256;1735;-43
2022/12/30 07:15:11;;;;;;;;;;;23.30;33.40;;;;;;466154;252;1745;-43
2022/12/30 07:17:12;;;;;;;;;;;23.30;33.30;;;;;;475885;249;1638;-43
2022/12/30 07:19:14;;;;;;;;;;;23.30;33.30;;;;;;458506;256;1522;-44
2022/12/30 07:21:15;;;;;;;;;;;23.30;33.30;;;;;;466082;252;1763;-43
2022/12/30 07:23:16;;;;;;;;;;;23.30;33.20;;;;;;476037;249;1860;-43
2022/12/30 07:25:18;;;;;;;;;;;23.30;33.20;;;;;;458462;256;1673;-44
2022/12/30 07:27:19;;;;;;;;;;;23.40;33.30;;;;;;465952;252;2184;-44
2022/12/30 07:29:20;;;;;;;;;;;23.40;33.20;;;;;;475895;249;1697;-44
2022/12/30 07:31:22;;;;;;;;;;;23.40;33.20;;;;;;458327;256;2371;-44
2022/12/30 07:33:23;;;;;;;;;;;23.40;33.10;;;;;;465944;252;2037;-44
2022/12/30 07:35:24;;;;;;;;;;;23.40;33.20;;;;;;475806;249;2217;-44
2022/12/30 07:37:26;;;;;;;;;;;23.50;33.20;;;;;;458069;256;1705;-44
2022/12/30 07:39:29;;;;;;;;;;;23.50;33.10;;;;;;465770;252;1727;-43
2022/12/30 07:41:28;;;;;;;;;;;23.50;33.20;;;;;;475608;250;1719;-43
2022/12/30 07:43:30;;;;;;;;;;;23.50;33.20;;;;;;458091;257;2081;-43
2022/12/30 07:45:31;;;;;;;;;;;23.40;33.40;;;;;;465707;252;2154;-43
2022/12/30 07:47:32;;;;;;;;;;;23.10;33.70;;;;;;475701;249;2176;-44
2022/12/30 07:49:34;;;;;;;;;;;22.90;34.10;;;;;;458148;257;1946;-43
2022/12/30 07:51:35;;;;;;;;;;;22.80;34.40;;;;;;465740;252;1805;-44
2022/12/30 07:53:36;;;;;;;;;;;22.60;34.60;;;;;;475812;249;1717;-43
2022/12/30 07:55:37;;;;;;;;;;;22.50;34.70;;;;;;458240;256;1593;-44
2022/12/30 07:57:39;;;;;;;;;;;22.40;34.90;;;;;;465723;252;1718;-43
2022/12/30 07:59:40;;;;;;;;;;;22.30;35.10;;;;;;475823;249;1914;-44
2022/12/30 08:01:41;;;;;;;;;;;22.30;35.20;;;;;;458198;255;1696;-43
2022/12/30 08:03:43;;;;;;;;;;;22.30;35.20;;;;;;465781;252;1768;-44
2022/12/30 08:05:44;;;;;;;;;;;22.20;35.30;;;;;;475753;249;1842;-44
2022/12/30 08:07:45;;;;;;;;;;;22.20;35.40;;;;;;458175;257;2209;-43
2022/12/30 08:09:47;;;;;;;;;;;22.10;35.40;;;;;;465781;252;1832;-43
2022/12/30 08:11:48;;;;;;;;;;;22.10;35.60;;;;;;475776;249;1728;-43
2022/12/30 08:13:49;;;;;;;;;;;22.10;35.60;;;;;;458135;256;1780;-43
2022/12/30 08:15:51;;;;;;;;;;;22.00;35.50;;;;;;465853;252;1611;-43
2022/12/30 08:17:52;;;;;;;;;;;22.00;35.70;;;;;;475936;249;1937;-43
2022/12/30 08:19:53;;;;;;;;;;;22.00;35.70;;;;;;458094;257;1781;-44
2022/12/30 08:21:55;;;;;;;;;;;21.90;35.80;;;;;;465797;252;1793;-43
2022/12/30 08:23:56;;;;;;;;;;;21.90;35.80;;;;;;475853;249;1959;-43
2022/12/30 08:25:57;;;;;;;;;;;22.00;35.70;;;;;;458176;257;1706;-43
2022/12/30 08:27:59;;;;;;;;;;;22.30;35.30;;;;;;465931;252;2185;-44
2022/12/30 08:30:00;;;;;;;;;;;22.50;35.00;;;;;;476036;249;2251;-44
2022/12/30 08:32:01;;;;;;;;;;;22.60;34.70;;;;;;458308;257;2081;-43
2022/12/30 08:34:03;;;;;;;;;;;22.50;34.80;;;;;;466013;252;1912;-44
2022/12/30 08:36:04;;;;;;;;;;;22.40;34.90;;;;;;476038;249;1892;-43
2022/12/30 08:38:05;;;;;;;;;;;22.30;35.10;;;;;;458555;257;1688;-44
2022/12/30 08:40:07;;;;;;;;;;;22.20;35.30;;;;;;466326;252;1943;-43
2022/12/30 08:42:08;;;;;;;;;;;22.10;35.40;;;;;;476214;250;2114;-43
2022/12/30 08:44:10;;;;;;;;;;;22.10;35.50;;;;;;458595;257;1931;-43
2022/12/30 08:46:11;;;;;;;;;;;22.00;35.60;;;;;;466288;249;2181;-43
2022/12/30 08:48:12;;;;;;;;;;;22.00;35.70;;;;;;476201;249;2295;-43
2022/12/30 08:50:14;;;;;;;;;;;22.00;35.80;;;;;;458377;257;1692;-43
2022/12/30 08:52:15;;;;;;;;;;;21.90;35.80;;;;;;466430;252;2359;-43
2022/12/30 08:54:17;;;;;;;;;;;21.90;35.90;;;;;;476411;249;1874;-44
2022/12/30 08:56:18;;;;;;;;;;;21.90;35.90;;;;;;458281;259;1653;-44
2022/12/30 08:58:19;;;;;;;;;;;21.90;35.90;;;;;;465966;252;2222;-44
2022/12/30 09:00:20;;;;;;;;;;;21.80;36.00;;;;;;475923;249;1650;-43
2022/12/30 09:02:22;;;;;;;;;;;21.90;36.00;;;;;;458241;257;1800;-43
2022/12/30 09:04:23;;;;;;;;;;;21.80;36.00;;;;;;466136;252;1874;-44
2022/12/30 09:06:24;;;;;;;;;;;21.80;36.10;;;;;;475894;249;2176;-44
2022/12/30 09:08:26;;;;;;;;;;;21.90;36.00;;;;;;458291;257;1717;-44
2022/12/30 09:10:27;;;;;;;;;;;22.10;35.60;;;;;;465918;252;1778;-43
2022/12/30 09:12:28;;;;;;;;;;;22.30;35.20;;;;;;475897;249;2055;-44
2022/12/30 09:14:30;;;;;;;;;;;22.50;35.00;;;;;;458188;256;2177;-44
2022/12/30 09:16:31;;;;;;;;;;;22.50;34.90;;;;;;465794;252;1760;-44
2022/12/30 09:18:32;;;;;;;;;;;22.40;35.00;;;;;;476011;249;1644;-44
2022/12/30 09:20:34;;;;;;;;;;;22.30;35.20;;;;;;458196;257;1786;-43
2022/12/30 09:22:35;;;;;;;;;;;22.20;35.40;;;;;;465903;252;1897;-44
2022/12/30 09:24:36;;;;;;;;;;;22.10;35.60;;;;;;475930;249;1875;-44
2022/12/30 09:26:38;;;;;;;;;;;22.00;35.70;;;;;;458371;256;2185;-44
2022/12/30 09:28:39;;;;;;;;;;;22.00;35.70;;;;;;465868;252;1682;-44
2022/12/30 09:30:40;;;;;;;;;;;21.90;35.90;;;;;;475970;249;1997;-44
2022/12/30 09:32:42;;;;;;;;;;;21.90;35.90;;;;;;458247;256;2188;-43
2022/12/30 09:34:43;;;;;;;;;;;21.90;36.00;;;;;;466015;252;1764;-43
2022/12/30 09:36:45;;;;;;;;;;;21.90;36.00;;;;;;475698;249;1720;-43
2022/12/30 09:38:46;;;;;;;;;;;21.90;36.00;;;;;;458211;256;2140;-44
2022/12/30 09:40:47;;;;;;;;;;;21.90;36.00;;;;;;465788;252;1697;-44
2022/12/30 09:45:08;;;;;;;;;;;21.80;36.10;;;;;;458199;259;1804;-44
2022/12/30 09:47:10;;;;;;;;;;;21.80;36.20;;;;;;465589;252;2311;-43
2022/12/30 09:49:11;;;;;;;;;;;21.80;36.20;;;;;;475821;249;1934;-44
2022/12/30 09:51:12;;;;;;;;;;;21.70;36.20;;;;;;458206;256;1748;-43
2022/12/30 09:53:14;;;;;;;;;;;21.70;36.20;;;;;;465755;252;1753;-44
2022/12/30 09:55:15;;;;;;;;;;;21.70;36.20;;;;;;475859;249;1654;-43
2022/12/30 09:57:32;;;;;;;;;;;21.70;36.20;;;;;;458152;256;2475;-43
2022/12/30 09:59:35;;;;;;;;;;;21.70;36.20;;;;;;465843;252;1702;-43
2022/12/30 10:01:34;;;;;;;;;;;21.70;36.20;;;;;;475949;250;1717;-44
2022/12/30 10:03:36;;;;;;;;;;;21.70;36.20;;;;;;458365;256;1887;-44
2022/12/30 10:05:37;;;;;;;;;;;21.70;36.20;;;;;;465950;252;2203;-44
2022/12/30 10:07:38;;;;;;;;;;;21.70;36.30;;;;;;475977;249;2168;-43
2022/12/30 10:09:40;;;;;;;;;;;21.70;36.30;;;;;;458310;256;1912;-44
2022/12/30 10:11:41;;;;;;;;;;;21.70;36.20;;;;;;465932;252;1663;-43
2022/12/30 10:13:42;;;;;;;;;;;21.70;36.30;;;;;;476010;249;1594;-44
2022/12/30 10:15:44;;;;;;;;;;;21.60;36.20;;;;;;458368;257;1698;-43
2022/12/30 10:17:45;;;;;;;;;;;21.70;36.30;;;;;;465839;252;1721;-43
2022/12/30 10:19:46;;;;;;;;;;;21.70;36.30;;;;;;475894;249;1745;-44
2022/12/30 10:21:48;;;;;;;;;;;21.70;36.30;;;;;;458201;256;1778;-43
2022/12/30 10:23:49;;;;;;;;;;;21.60;36.40;;;;;;466294;252;1636;-43
2022/12/30 10:25:50;;;;;;;;;;;21.70;36.30;;;;;;476070;249;1531;-43
2022/12/30 10:27:52;;;;;;;;;;;21.70;36.30;;;;;;458334;256;2198;-43
2022/12/30 10:29:53;;;;;;;;;;;21.60;36.30;;;;;;466084;252;2116;-43
2022/12/30 10:31:54;;;;;;;;;;;21.60;36.30;;;;;;476220;249;1605;-44
2022/12/30 10:33:56;;;;;;;;;;;21.60;36.30;;;;;;458424;256;2235;-43
2022/12/30 10:35:57;;;;;;;;;;;21.60;36.40;;;;;;466105;252;2041;-44
2022/12/30 10:37:58;;;;;;;;;;;21.60;36.40;;;;;;476101;249;1885;-43
2022/12/30 10:39:59;;;;;;;;;;;21.60;36.40;;;;;;458281;256;1952;-44
2022/12/30 10:42:01;;;;;;;;;;;21.60;36.40;;;;;;465843;252;1678;-43
2022/12/30 10:44:02;;;;;;;;;;;21.60;36.40;;;;;;475808;249;1861;-44
2022/12/30 10:46:04;;;;;;;;;;;21.60;36.40;;;;;;458154;255;1457;-44
2022/12/30 10:48:05;;;;;;;;;;;21.60;36.50;;;;;;465887;252;2363;-44
2022/12/30 10:50:06;;;;;;;;;;;21.60;36.40;;;;;;475889;249;1742;-43
2022/12/30 10:52:07;;;;;;;;;;;21.60;36.40;;;;;;458258;256;1755;-43
2022/12/30 10:54:09;;;;;;;;;;;21.60;36.40;;;;;;465833;252;1859;-44
2022/12/30 10:56:10;;;;;;;;;;;21.60;36.40;;;;;;475934;249;1734;-43
2022/12/30 10:58:11;;;;;;;;;;;21.60;36.40;;;;;;458265;256;2238;-44
2022/12/30 11:00:13;;;;;;;;;;;21.60;36.40;;;;;;465993;252;1918;-43
2022/12/30 11:02:14;;;;;;;;;;;21.60;36.40;;;;;;476027;249;1706;-43
2022/12/30 11:04:15;;;;;;;;;;;21.60;36.40;;;;;;458289;257;1843;-43
2022/12/30 11:06:17;;;;;;;;;;;21.60;36.40;;;;;;466009;252;1888;-43
2022/12/30 11:08:18;;;;;;;;;;;21.60;36.50;;;;;;475873;249;2191;-43
2022/12/30 11:10:19;;;;;;;;;;;21.60;36.50;;;;;;458314;256;1707;-43
2022/12/30 11:14:43;;;;;;;;;;;21.60;36.50;;;;;;476106;250;2037;-44
2022/12/30 11:16:44;;;;;;;;;;;21.60;36.40;;;;;;458336;256;2893;-43
2022/12/30 11:18:46;;;;;;;;;;;21.60;36.50;;;;;;465830;252;1743;-44
2022/12/30 11:20:47;;;;;;;;;;;21.60;36.40;;;;;;475907;249;1932;-44
2022/12/30 11:22:48;;;;;;;;;;;21.60;36.50;;;;;;458087;257;1769;-43
2022/12/30 11:24:50;;;;;;;;;;;21.50;36.40;;;;;;465759;252;1965;-43
2022/12/30 11:26:51;;;;;;;;;;;21.50;36.40;;;;;;475752;249;1658;-43
2022/12/30 11:28:52;;;;;;;;;;;21.60;36.40;;;;;;458063;257;2181;-44
2022/12/30 11:30:54;;;;;;;;;;;21.50;36.50;;;;;;465654;252;1704;-43
2022/12/30 11:32:55;;;;;;;;;;;21.50;36.50;;;;;;475812;249;1685;-43
2022/12/30 11:34:56;;;;;;;;;;;21.50;36.50;;;;;;458170;256;1831;-43
2022/12/30 11:36:58;;;;;;;;;;;21.50;36.50;;;;;;465753;252;1934;-44
2022/12/30 11:38:59;;;;;;;;;;;21.50;36.50;;;;;;475798;249;1781;-43
2022/12/30 11:41:00;;;;;;;;;;;21.50;36.60;;;;;;457963;256;1826;-43
2022/12/30 11:43:02;;;;;;;;;;;21.50;36.60;;;;;;465698;252;1944;-43
2022/12/30 11:45:03;;;;;;;;;;;21.60;36.60;;;;;;475746;249;1711;-43
2022/12/30 11:47:04;;;;;;;;;;;21.50;36.50;;;;;;458015;257;1869;-43
2022/12/30 11:49:05;;;;;;;;;;;21.50;36.50;;;;;;465780;252;2126;-43
2022/12/30 11:51:07;;;;;;;;;;;21.60;36.50;;;;;;475666;249;1662;-43
2022/12/30 11:53:08;;;;;;;;;;;21.60;36.50;;;;;;458068;257;1788;-43
2022/12/30 11:55:09;;;;;;;;;;;21.50;36.50;;;;;;465664;252;1749;-43
2022/12/30 11:57:11;;;;;;;;;;;21.50;36.50;;;;;;475645;249;1881;-44
2022/12/30 11:59:13;;;;;;;;;;;21.50;36.50;;;;;;458111;257;1752;-44
2022/12/30 12:01:14;;;;;;;;;;;21.50;36.50;;;;;;465636;252;1716;-43
2022/12/30 12:03:15;;;;;;;;;;;21.50;36.50;;;;;;475887;249;1689;-44
2022/12/30 12:05:16;;;;;;;;;;;21.60;36.40;;;;;;458106;257;1801;-43
2022/12/30 12:07:17;;;;;;;;;;;21.50;36.40;;;;;;465581;252;1463;-43
2022/12/30 12:09:19;;;;;;;;;;;21.60;36.50;;;;;;475864;249;2247;-43
2022/12/30 12:11:20;;;;;;;;;;;21.50;36.50;;;;;;458029;257;1761;-43
2022/12/30 12:13:21;;;;;;;;;;;21.50;36.50;;;;;;465815;252;1721;-44
2022/12/30 12:15:23;;;;;;;;;;;21.60;36.50;;;;;;475962;249;1823;-43
2022/12/30 12:17:24;;;;;;;;;;;21.50;36.40;;;;;;458094;257;1941;-43
2022/12/30 12:19:25;;;;;;;;;;;21.50;36.50;;;;;;465890;252;1702;-44
2022/12/30 12:21:27;;;;;;;;;;;21.60;36.50;;;;;;475770;249;1987;-43
2022/12/30 12:23:28;;;;;;;;;;;21.60;36.40;;;;;;458172;256;1836;-43
2022/12/30 12:25:29;;;;;;;;;;;21.50;36.40;;;;;;465820;252;1929;-43
2022/12/30 12:27:31;;;;;;;;;;;21.50;36.50;;;;;;475790;249;2226;-43
2022/12/30 12:29:32;;;;;;;;;;;21.50;36.50;;;;;;458183;256;2243;-43
2022/12/30 12:31:33;;;;;;;;;;;21.50;36.50;;;;;;465813;252;1948;-43
2022/12/30 12:33:35;;;;;;;;;;;21.50;36.50;;;;;;475826;249;1718;-44
2022/12/30 12:35:36;;;;;;;;;;;21.50;36.60;;;;;;458113;257;1826;-43
2022/12/30 12:37:37;;;;;;;;;;;21.50;36.50;;;;;;465743;252;1796;-43
2022/12/30 12:39:38;;;;;;;;;;;21.50;36.50;;;;;;475896;249;1743;-43
2022/12/30 12:41:40;;;;;;;;;;;21.50;36.50;;;;;;458090;257;1778;-43
2022/12/30 12:43:42;;;;;;;;;;;21.50;36.60;;;;;;465977;252;1696;-43
2022/12/30 12:45:43;;;;;;;;;;;21.50;36.50;;;;;;475869;249;1778;-43
2022/12/30 12:47:44;;;;;;;;;;;21.60;36.40;;;;;;458140;256;2245;-43
2022/12/30 12:49:46;;;;;;;;;;;21.80;36.20;;;;;;465768;252;1738;-44
2022/12/30 12:51:47;;;;;;;;;;;22.00;35.80;;;;;;475663;249;1866;-43
2022/12/30 12:53:48;;;;;;;;;;;22.20;35.50;;;;;;458229;257;2154;-44
2022/12/30 12:55:50;;;;;;;;;;;22.30;35.20;;;;;;465930;252;1765;-44